Time,TemperatureF,DewpointF,PressureIn,WindDirection,WindDirectionDegrees,WindSpeedMPH,WindSpeedGustMPH,Humidity,HourlyPrecipIn,Conditions,Clouds,dailyrainin,SoftwareType,DateUTC
2013-01-14 00:04:00,57.0,57.0,-100.00,WSW,244,6.0,8.0,99,0.11,,,0.61,,2013-01-14 05:04:00,
2013-01-14 00:12:00,57.0,57.0,-100.00,WSW,244,6.0,8.0,99,0.11,,,0.61,,2013-01-14 05:12:00,
2013-01-14 00:22:00,57.0,56.0,-100.00,WSW,239,5.0,7.0,99,0.04,,,0.65,,2013-01-14 05:22:00,
2013-01-14 00:33:00,57.0,56.0,-100.00,WSW,239,5.0,7.0,99,0.04,,,0.65,,2013-01-14 05:33:00,
2013-01-14 00:43:00,57.0,56.0,-100.00,WSW,244,6.0,9.0,99,0.04,,,0.67,,2013-01-14 05:43:00,
2013-01-14 00:53:00,57.0,56.0,-100.00,WSW,244,6.0,9.0,99,0.04,,,0.67,,2013-01-14 05:53:00,
2013-01-14 01:03:00,57.0,56.0,-100.00,SW,232,6.0,8.0,99,0.28,,,0.73,,2013-01-14 06:03:00,
2013-01-14 01:12:00,57.0,56.0,-100.00,SW,232,6.0,8.0,99,0.28,,,0.73,,2013-01-14 06:12:00,
2013-01-14 01:23:00,57.0,56.0,-100.00,SSW,205,2.0,5.0,99,0.30,,,0.81,,2013-01-14 06:23:00,
2013-01-14 01:33:00,57.0,56.0,-100.00,West,265,6.0,7.0,98,0.00,,,0.84,,2013-01-14 06:33:00,
2013-01-14 01:43:00,57.0,56.0,-100.00,West,265,6.0,7.0,98,0.00,,,0.84,,2013-01-14 06:43:00,
2013-01-14 01:53:00,57.0,56.0,-100.00,SW,229,2.0,2.0,98,0.00,,,0.84,,2013-01-14 06:53:00,
2013-01-14 02:02:00,57.0,56.0,-100.00,SW,229,2.0,2.0,98,0.00,,,0.84,,2013-01-14 07:02:00,
2013-01-14 02:12:00,57.0,56.0,-100.00,SW,229,2.0,2.0,98,0.00,,,0.84,,2013-01-14 07:12:00,
2013-01-14 02:23:00,56.0,56.0,-100.00,West,270,2.0,3.0,98,0.00,,,0.84,,2013-01-14 07:23:00,
2013-01-14 02:33:00,54.0,53.0,-100.00,NW,316,5.0,8.0,97,0.06,,,0.86,,2013-01-14 07:33:00,
2013-01-14 02:43:00,54.0,53.0,-100.00,NW,316,5.0,8.0,97,0.06,,,0.86,,2013-01-14 07:43:00,
2013-01-14 02:53:00,54.0,53.0,-100.00,NW,316,5.0,8.0,97,0.06,,,0.86,,2013-01-14 07:53:00,
2013-01-14 03:02:00,52.0,51.0,-100.00,NNE,16,5.0,11.0,96,0.48,,,0.91,,2013-01-14 08:02:00,
2013-01-14 03:12:00,52.0,51.0,-100.00,NNE,16,5.0,11.0,96,0.48,,,0.91,,2013-01-14 08:12:00,
2013-01-14 03:22:00,51.0,49.0,-100.00,NNE,23,7.0,11.0,96,0.14,,,1.00,,2013-01-14 08:22:00,
2013-01-14 03:33:00,47.0,46.0,-100.00,North,353,6.0,12.0,95,0.07,,,1.09,,2013-01-14 08:33:00,
2013-01-14 03:42:00,47.0,46.0,-100.00,North,353,6.0,12.0,95,0.07,,,1.09,,2013-01-14 08:42:00,
2013-01-14 03:53:00,45.0,44.0,-100.00,ENE,69,7.0,12.0,96,0.13,,,1.19,,2013-01-14 08:53:00,
2013-01-14 04:03:00,45.0,44.0,-100.00,ENE,69,7.0,12.0,96,0.13,,,1.19,,2013-01-14 09:03:00,
2013-01-14 04:12:00,45.0,44.0,-100.00,ENE,69,7.0,12.0,96,0.13,,,1.19,,2013-01-14 09:12:00,
2013-01-14 04:23:00,43.0,42.0,-100.00,NNE,20,6.0,12.0,96,0.35,,,1.29,,2013-01-14 09:23:00,
2013-01-14 04:33:00,43.0,42.0,-100.00,ENE,64,7.0,13.0,97,0.45,,,1.40,,2013-01-14 09:33:00,
2013-01-14 04:43:00,43.0,42.0,-100.00,ENE,64,7.0,13.0,97,0.45,,,1.40,,2013-01-14 09:43:00,
2013-01-14 04:53:00,42.0,41.0,-100.00,East,83,7.0,11.0,97,0.09,,,1.45,,2013-01-14 09:53:00,
2013-01-14 05:03:00,42.0,41.0,-100.00,East,83,7.0,11.0,97,0.09,,,1.45,,2013-01-14 10:03:00,
2013-01-14 05:12:00,42.0,41.0,-100.00,East,83,7.0,11.0,97,0.09,,,1.45,,2013-01-14 10:12:00,
2013-01-14 05:23:00,42.0,41.0,-100.00,ENE,62,7.0,10.0,97,0.09,,,1.48,,2013-01-14 10:23:00,
2013-01-14 05:33:00,42.0,41.0,-100.00,East,92,5.0,8.0,97,0.00,,,1.52,,2013-01-14 10:33:00,
2013-01-14 05:43:00,42.0,41.0,-100.00,East,92,5.0,8.0,97,0.00,,,1.52,,2013-01-14 10:43:00,
2013-01-14 05:53:00,41.0,40.0,-100.00,ENE,76,6.0,9.0,97,0.10,,,1.55,,2013-01-14 10:53:00,
2013-01-14 06:02:00,41.0,40.0,-100.00,ENE,76,6.0,9.0,97,0.10,,,1.55,,2013-01-14 11:02:00,
2013-01-14 06:12:00,41.0,40.0,-100.00,ENE,76,6.0,9.0,97,0.10,,,1.55,,2013-01-14 11:12:00,
2013-01-14 06:22:00,41.0,40.0,-100.00,East,79,8.0,10.0,97,0.01,,,1.56,,2013-01-14 11:22:00,
2013-01-14 06:33:00,40.0,40.0,-100.00,East,88,9.0,13.0,97,0.01,,,1.61,,2013-01-14 11:33:00,
2013-01-14 06:43:00,40.0,40.0,-100.00,East,88,9.0,13.0,97,0.01,,,1.61,,2013-01-14 11:43:00,
2013-01-14 06:53:00,40.0,40.0,-100.00,East,88,8.0,12.0,97,0.00,,,1.61,,2013-01-14 11:53:00,
2013-01-14 07:03:00,40.0,40.0,-100.00,East,88,8.0,12.0,97,0.00,,,1.61,,2013-01-14 12:03:00,
2013-01-14 07:12:00,40.0,40.0,-100.00,East,88,8.0,12.0,97,0.00,,,1.61,,2013-01-14 12:12:00,
2013-01-14 07:23:00,41.0,40.0,-100.00,ENE,65,3.0,5.0,98,0.00,,,1.62,,2013-01-14 12:23:00,
2013-01-14 07:33:00,40.0,40.0,-100.00,East,96,4.0,7.0,98,0.00,,,1.62,,2013-01-14 12:33:00,
2013-01-14 07:43:00,40.0,40.0,-100.00,East,96,4.0,7.0,98,0.00,,,1.62,,2013-01-14 12:43:00,
2013-01-14 07:53:00,40.0,40.0,-100.00,East,88,6.0,11.0,97,0.00,,,1.62,,2013-01-14 12:53:00,
2013-01-14 08:03:00,40.0,40.0,-100.00,East,88,6.0,11.0,97,0.00,,,1.62,,2013-01-14 13:03:00,
2013-01-14 08:13:00,40.0,40.0,-100.00,East,88,6.0,11.0,97,0.00,,,1.62,,2013-01-14 13:13:00,
2013-01-14 08:23:00,40.0,39.0,-100.00,East,90,7.0,12.0,97,0.00,,,1.62,,2013-01-14 13:23:00,
2013-01-14 08:33:00,40.0,39.0,-100.00,ESE,106,3.0,5.0,98,0.07,,,1.64,,2013-01-14 13:33:00,
2013-01-14 08:43:00,40.0,39.0,-100.00,ESE,106,3.0,5.0,98,0.07,,,1.64,,2013-01-14 13:43:00,
2013-01-14 08:53:00,40.0,39.0,-100.00,East,83,4.0,7.0,98,0.00,,,1.65,,2013-01-14 13:53:00,
2013-01-14 09:03:00,40.0,39.0,-100.00,East,83,4.0,7.0,98,0.00,,,1.65,,2013-01-14 14:03:00,
2013-01-14 09:13:00,40.0,39.0,-100.00,East,83,4.0,7.0,98,0.00,,,1.65,,2013-01-14 14:13:00,
2013-01-14 09:23:00,40.0,39.0,-100.00,East,85,4.0,7.0,98,0.00,,,1.65,,2013-01-14 14:23:00,
2013-01-14 09:33:00,40.0,39.0,-100.00,East,79,5.0,8.0,98,0.04,,,1.65,,2013-01-14 14:33:00,
2013-01-14 09:43:00,40.0,39.0,-100.00,East,79,5.0,8.0,98,0.04,,,1.65,,2013-01-14 14:43:00,
2013-01-14 09:53:00,40.0,39.0,-100.00,East,79,5.0,8.0,98,0.04,,,1.65,,2013-01-14 14:53:00,
2013-01-14 10:03:00,40.0,39.0,-100.00,East,92,4.0,7.0,98,0.00,,,1.65,,2013-01-14 15:03:00,
2013-01-14 10:12:00,40.0,39.0,-100.00,East,92,4.0,7.0,98,0.00,,,1.65,,2013-01-14 15:12:00,
2013-01-14 10:23:00,40.0,40.0,-100.00,ESE,116,2.0,4.0,98,0.55,,,1.67,,2013-01-14 15:23:00,
2013-01-14 10:33:00,40.0,40.0,-100.00,ESE,109,3.0,4.0,98,0.01,,,1.67,,2013-01-14 15:33:00,
2013-01-14 10:43:00,40.0,40.0,-100.00,ESE,109,3.0,4.0,98,0.01,,,1.67,,2013-01-14 15:43:00,
2013-01-14 10:53:00,40.0,40.0,-100.00,ESE,109,3.0,4.0,98,0.01,,,1.67,,2013-01-14 15:53:00,
2013-01-14 11:03:00,40.0,40.0,-100.00,ESE,109,3.0,4.0,98,0.01,,,1.67,,2013-01-14 16:03:00,
2013-01-14 11:23:00,40.0,40.0,-100.00,ENE,76,5.0,7.0,98,0.00,,,1.67,,2013-01-14 16:23:00,
2013-01-14 11:33:00,40.0,40.0,-100.00,East,80,5.0,9.0,98,0.11,,,1.69,,2013-01-14 16:33:00,
2013-01-14 11:43:00,40.0,40.0,-100.00,East,80,5.0,9.0,98,0.11,,,1.69,,2013-01-14 16:43:00,
2013-01-14 11:53:00,40.0,40.0,-100.00,East,80,5.0,9.0,98,0.11,,,1.69,,2013-01-14 16:53:00,
2013-01-14 12:03:00,40.0,40.0,-100.00,East,80,5.0,9.0,98,0.11,,,1.69,,2013-01-14 17:03:00,
2013-01-14 12:23:00,40.0,39.0,-100.00,ENE,78,6.0,11.0,98,0.00,,,1.72,,2013-01-14 17:23:00,
2013-01-14 12:33:00,40.0,39.0,-100.00,ENE,78,6.0,11.0,98,0.00,,,1.72,,2013-01-14 17:33:00,
2013-01-14 12:43:00,40.0,39.0,-100.00,ESE,106,4.0,6.0,98,0.00,,,1.72,,2013-01-14 17:43:00,
2013-01-14 12:54:00,40.0,39.0,-100.00,ESE,106,4.0,6.0,98,0.00,,,1.72,,2013-01-14 17:54:00,
2013-01-14 13:03:00,40.0,39.0,-100.00,East,93,4.0,8.0,98,0.00,,,1.72,,2013-01-14 18:03:00,
2013-01-14 13:13:00,40.0,39.0,-100.00,East,93,4.0,8.0,98,0.00,,,1.72,,2013-01-14 18:13:00,
2013-01-14 13:23:00,40.0,39.0,-100.00,ENE,61,5.0,9.0,98,0.00,,,1.71,,2013-01-14 18:23:00,
2013-01-14 13:33:00,40.0,39.0,-100.00,ENE,61,5.0,9.0,98,0.00,,,1.71,,2013-01-14 18:33:00,
2013-01-14 13:43:00,40.0,39.0,-100.00,East,86,6.0,10.0,97,0.00,,,1.71,,2013-01-14 18:43:00,
2013-01-14 13:53:00,40.0,39.0,-100.00,East,86,6.0,10.0,97,0.00,,,1.71,,2013-01-14 18:53:00,
2013-01-14 14:03:00,40.0,39.0,-100.00,NNE,17,5.0,10.0,97,0.00,,,1.71,,2013-01-14 19:03:00,
2013-01-14 14:13:00,40.0,39.0,-100.00,NNE,17,5.0,10.0,97,0.00,,,1.71,,2013-01-14 19:13:00,
2013-01-14 14:22:00,40.0,39.0,-100.00,NE,55,5.0,9.0,96,0.00,,,1.71,,2013-01-14 19:22:00,
2013-01-14 14:33:00,40.0,39.0,-100.00,NE,55,5.0,9.0,96,0.00,,,1.71,,2013-01-14 19:33:00,
2013-01-14 14:43:00,41.0,40.0,-100.00,ENE,65,6.0,10.0,96,0.00,,,1.71,,2013-01-14 19:43:00,
2013-01-14 14:53:00,41.0,40.0,-100.00,NE,49,5.0,7.0,96,0.00,,,1.71,,2013-01-14 19:53:00,
2013-01-14 15:04:00,41.0,40.0,-100.00,NE,49,5.0,7.0,96,0.00,,,1.71,,2013-01-14 20:04:00,
2013-01-14 15:13:00,41.0,40.0,-100.00,NE,49,5.0,7.0,96,0.00,,,1.71,,2013-01-14 20:13:00,
2013-01-14 15:23:00,41.0,40.0,-100.00,NNE,23,3.0,7.0,96,0.00,,,1.71,,2013-01-14 20:23:00,
2013-01-14 15:33:00,41.0,40.0,-100.00,NNE,23,3.0,7.0,96,0.00,,,1.71,,2013-01-14 20:33:00,
2013-01-14 15:43:00,40.0,40.0,-100.00,ENE,61,6.0,10.0,96,0.01,,,1.71,,2013-01-14 20:43:00,
2013-01-14 15:53:00,40.0,40.0,-100.00,ENE,61,6.0,10.0,96,0.01,,,1.71,,2013-01-14 20:53:00,
2013-01-14 16:03:00,40.0,40.0,-100.00,NE,51,6.0,11.0,97,0.01,,,1.72,,2013-01-14 21:03:00,
2013-01-14 16:13:00,40.0,40.0,-100.00,NE,51,6.0,11.0,97,0.01,,,1.72,,2013-01-14 21:13:00,
2013-01-14 16:23:00,40.0,40.0,-100.00,NE,55,4.0,6.0,97,0.17,,,1.73,,2013-01-14 21:23:00,
2013-01-14 16:33:00,40.0,40.0,-100.00,NE,55,4.0,6.0,97,0.17,,,1.73,,2013-01-14 21:33:00,
2013-01-14 16:43:00,40.0,39.0,-100.00,NNE,20,6.0,11.0,98,0.23,,,1.83,,2013-01-14 21:43:00,
2013-01-14 16:53:00,40.0,39.0,-100.00,NNE,20,6.0,11.0,98,0.23,,,1.83,,2013-01-14 21:53:00,
2013-01-14 17:03:00,40.0,40.0,-100.00,East,90,5.0,9.0,99,0.23,,,1.92,,2013-01-14 22:03:00,
2013-01-14 17:12:00,40.0,40.0,-100.00,East,90,5.0,9.0,99,0.23,,,1.92,,2013-01-14 22:12:00,
2013-01-14 17:23:00,40.0,39.0,-100.00,East,95,6.0,8.0,99,0.16,,,1.99,,2013-01-14 22:23:00,
2013-01-14 17:33:00,39.0,39.0,-100.00,East,92,7.0,9.0,99,0.37,,,2.08,,2013-01-14 22:33:00,
2013-01-14 17:43:00,39.0,39.0,-100.00,East,92,7.0,9.0,99,0.37,,,2.08,,2013-01-14 22:43:00,
2013-01-14 17:53:00,39.0,39.0,-100.00,East,92,7.0,9.0,99,0.37,,,2.08,,2013-01-14 22:53:00,
2013-01-14 18:03:00,38.0,38.0,-100.00,East,95,6.0,8.0,99,0.50,,,2.17,,2013-01-14 23:03:00,
2013-01-14 18:12:00,38.0,38.0,-100.00,East,95,6.0,8.0,99,0.50,,,2.17,,2013-01-14 23:12:00,
2013-01-14 18:23:00,37.0,37.0,-100.00,East,80,7.0,10.0,99,0.14,,,2.22,,2013-01-14 23:23:00,
2013-01-14 18:33:00,37.0,37.0,-100.00,East,80,7.0,10.0,99,0.14,,,2.22,,2013-01-14 23:33:00,
2013-01-14 18:43:00,36.0,36.0,-100.00,East,88,8.0,13.0,99,0.17,,,2.28,,2013-01-14 23:43:00,
2013-01-14 18:53:00,36.0,36.0,-100.00,East,88,8.0,13.0,99,0.17,,,2.28,,2013-01-14 23:53:00,
2013-01-14 19:03:00,36.0,36.0,-100.00,East,88,8.0,13.0,99,0.17,,,2.28,,2013-01-15 00:03:00,